createdAt,value
2024-02-19T00:02:26.549Z,76.70
2024-02-19T00:05:13.855Z,75.93
2024-02-19T00:08:02.814Z,76.16
2024-02-19T00:10:50.855Z,76.90
2024-02-19T00:13:40.628Z,77.11
2024-02-19T00:16:26.825Z,77.68
2024-02-19T00:19:12.868Z,77.68
2024-02-19T00:21:58.990Z,77.97
2024-02-19T00:24:44.680Z,78.48
2024-02-19T00:27:30.369Z,79.32
2024-02-19T00:30:18.972Z,78.29
2024-02-19T00:33:04.936Z,78.55
2024-02-19T00:35:50.756Z,79.46
2024-02-19T00:38:36.889Z,78.83
2024-02-19T00:41:23.425Z,78.29
2024-02-19T00:44:09.394Z,79.62
2024-02-19T00:46:54.904Z,80.11
2024-02-19T00:49:40.561Z,78.98
2024-02-19T00:52:26.780Z,79.87
2024-02-19T00:55:12.415Z,79.50
2024-02-19T00:57:57.622Z,79.62
2024-02-19T01:00:44.018Z,79.54
2024-02-19T01:03:29.578Z,79.85
2024-02-19T01:06:14.984Z,80.33
2024-02-19T01:09:00.422Z,79.50
2024-02-19T01:11:45.983Z,80.00
2024-02-19T01:14:31.671Z,80.18
2024-02-19T01:17:17.378Z,79.57
2024-02-19T01:20:03.370Z,80.30
2024-02-19T01:22:49.005Z,78.55
2024-02-19T01:25:35.341Z,79.54
2024-02-19T01:28:21.381Z,79.36
2024-02-19T01:31:07.166Z,80.46
2024-02-19T01:33:54.342Z,80.26
2024-02-19T01:36:40.614Z,79.94
2024-02-19T01:39:26.510Z,79.52
2024-02-19T01:42:12.501Z,80.19
2024-02-19T01:44:58.157Z,80.00
2024-02-19T01:47:43.492Z,80.07
2024-02-19T01:50:31.704Z,80.09
2024-02-19T01:53:18.161Z,80.20
2024-02-19T01:56:05.395Z,80.27
2024-02-19T01:58:52.145Z,80.88
2024-02-19T02:01:38.858Z,79.90
2024-02-19T02:04:25.372Z,80.96
2024-02-19T02:07:13.173Z,80.62
2024-02-19T02:10:00.935Z,80.59
2024-02-19T02:12:46.812Z,80.13
2024-02-19T02:15:32.630Z,80.40
2024-02-19T02:18:20.261Z,80.58
2024-02-19T02:21:06.700Z,80.46
2024-02-19T02:23:52.159Z,80.63
2024-02-19T02:26:41.573Z,80.92
2024-02-19T02:29:27.058Z,80.73
2024-02-19T02:32:12.604Z,80.39
2024-02-19T02:34:58.434Z,80.69
2024-02-19T02:37:44.063Z,80.64
2024-02-19T02:40:29.688Z,80.93
2024-02-19T02:43:15.069Z,81.27
2024-02-19T02:46:00.502Z,80.31
2024-02-19T02:48:46.276Z,79.43
2024-02-19T02:51:33.033Z,80.59
2024-02-19T02:54:18.571Z,80.16
2024-02-19T02:57:04.061Z,80.10
2024-02-19T02:59:49.661Z,80.23
2024-02-19T03:02:35.307Z,79.58
2024-02-19T03:05:21.093Z,79.38
2024-02-19T03:08:06.966Z,79.46
2024-02-19T03:10:52.437Z,79.41
2024-02-19T03:13:38.762Z,78.83
2024-02-19T03:16:24.883Z,78.55
2024-02-19T03:19:14.937Z,78.35
2024-02-19T03:22:00.498Z,78.70
2024-02-19T03:24:46.265Z,78.83
2024-02-19T03:27:32.133Z,79.18
2024-02-19T03:30:18.233Z,79.56
2024-02-19T03:33:04.650Z,79.26
2024-02-19T03:35:52.313Z,78.78
2024-02-19T03:38:39.274Z,79.23
2024-02-19T03:41:25.393Z,79.16
2024-02-19T03:44:10.995Z,79.71
2024-02-19T03:46:59.361Z,79.18
2024-02-19T03:49:45.636Z,78.92
2024-02-19T03:52:31.274Z,78.88
2024-02-19T03:55:17.545Z,79.35
2024-02-19T03:58:03.088Z,79.28
2024-02-19T04:00:48.680Z,79.16
2024-02-19T04:03:34.115Z,78.61
2024-02-19T04:06:19.587Z,79.41
2024-02-19T04:09:05.058Z,79.22
2024-02-19T04:11:50.732Z,79.94
2024-02-19T04:14:36.578Z,79.03
2024-02-19T04:17:21.982Z,80.02
2024-02-19T04:20:08.908Z,79.31
2024-02-19T04:22:54.535Z,79.35
2024-02-19T04:25:40.172Z,79.50
2024-02-19T04:28:25.672Z,79.69
2024-02-19T04:31:11.451Z,79.49
2024-02-19T04:33:57.156Z,79.44
2024-02-19T04:36:43.081Z,79.13
2024-02-19T04:39:28.683Z,80.12
2024-02-19T04:42:14.141Z,81.26
2024-02-19T04:44:59.901Z,81.50
2024-02-19T04:47:45.607Z,81.04
2024-02-19T04:50:31.075Z,80.13
2024-02-19T04:53:19.843Z,81.04
2024-02-19T04:56:05.813Z,80.47
2024-02-19T04:58:51.347Z,81.34
2024-02-19T05:01:37.137Z,81.36
2024-02-19T05:04:24.449Z,81.03
2024-02-19T05:07:10.172Z,81.36
2024-02-19T05:09:56.408Z,81.43
2024-02-19T05:12:41.845Z,80.88
2024-02-19T05:15:27.341Z,81.29
2024-02-19T05:18:13.109Z,81.14
2024-02-19T05:20:58.753Z,80.74
2024-02-19T05:23:44.352Z,80.77
2024-02-19T05:26:30.151Z,81.23
2024-02-19T05:29:15.739Z,81.05
2024-02-19T05:32:01.251Z,81.05
2024-02-19T05:34:46.728Z,80.69
2024-02-19T05:37:32.353Z,80.50
2024-02-19T05:40:18.006Z,80.92
2024-02-19T05:43:03.716Z,80.15
2024-02-19T05:45:49.538Z,79.92
2024-02-19T05:48:35.325Z,79.91
2024-02-19T05:51:20.810Z,78.91
2024-02-19T05:54:06.347Z,79.35
2024-02-19T05:56:52.168Z,79.12
2024-02-19T05:59:37.832Z,78.48
2024-02-19T06:02:23.703Z,78.55
2024-02-19T06:05:10.107Z,77.79
2024-02-19T06:07:55.498Z,77.42
2024-02-19T06:10:41.001Z,77.77
2024-02-19T06:13:27.018Z,77.23
2024-02-19T06:16:12.466Z,76.79
2024-02-19T06:19:02.723Z,77.12
2024-02-19T06:21:48.257Z,76.96
2024-02-19T06:24:33.655Z,77.54
2024-02-19T06:27:20.953Z,77.45
2024-02-19T06:30:07.361Z,77.55
2024-02-19T06:32:52.895Z,76.54
2024-02-19T06:35:38.451Z,77.31
2024-02-19T06:38:23.815Z,77.03
2024-02-19T06:41:09.336Z,76.74
2024-02-19T06:43:55.198Z,76.79
2024-02-19T06:46:40.908Z,76.94
2024-02-19T06:49:26.394Z,76.58
2024-02-19T06:52:12.279Z,76.93
2024-02-19T06:54:57.953Z,76.30
2024-02-19T06:57:44.162Z,76.26
2024-02-19T07:00:29.527Z,77.11
2024-02-19T07:03:15.193Z,76.64
2024-02-19T07:06:00.945Z,76.60
2024-02-19T07:08:48.286Z,76.87
2024-02-19T07:11:37.587Z,76.76
2024-02-19T07:14:27.247Z,77.24
2024-02-19T07:17:12.418Z,77.59
2024-02-19T07:19:59.573Z,77.16
2024-02-19T07:22:45.440Z,77.44
2024-02-19T07:25:30.945Z,76.68
2024-02-19T07:28:16.477Z,76.68
2024-02-19T07:31:02.291Z,76.73
2024-02-19T07:33:48.412Z,77.24
2024-02-19T07:36:34.159Z,76.97
2024-02-19T07:39:20.792Z,76.65
2024-02-19T07:42:06.567Z,76.91
2024-02-19T07:44:52.090Z,77.06
2024-02-19T07:47:38.236Z,76.92
2024-02-19T07:50:24.129Z,77.37
2024-02-19T07:53:09.741Z,77.87
2024-02-19T07:56:06.476Z,77.34
2024-02-19T07:58:52.530Z,77.49
2024-02-19T08:01:38.285Z,77.61
2024-02-19T08:04:28.383Z,77.43
2024-02-19T08:07:13.843Z,77.16
2024-02-19T08:09:59.227Z,77.67
2024-02-19T08:12:45.015Z,77.74
2024-02-19T08:15:32.190Z,77.42
2024-02-19T08:18:18.445Z,76.92
2024-02-19T08:21:04.829Z,76.14
2024-02-19T08:23:50.194Z,75.99
2024-02-19T08:26:35.844Z,75.63
2024-02-19T08:29:21.779Z,75.84
2024-02-19T08:32:07.736Z,75.85
2024-02-19T08:34:53.288Z,76.05
2024-02-19T08:37:39.120Z,75.92
2024-02-19T08:40:24.622Z,74.84
2024-02-19T08:43:12.922Z,74.93
2024-02-19T08:45:58.501Z,74.61
2024-02-19T08:48:44.423Z,74.34
2024-02-19T08:51:30.721Z,74.27
2024-02-19T08:54:16.531Z,73.62
2024-02-19T08:57:02.072Z,72.64
2024-02-19T08:59:47.965Z,72.37
2024-02-19T09:02:33.724Z,72.24
2024-02-19T09:05:21.714Z,71.66
2024-02-19T09:08:07.875Z,71.15
2024-02-19T09:10:55.159Z,71.77
2024-02-19T09:13:42.095Z,72.13
2024-02-19T09:16:28.912Z,71.55
2024-02-19T09:19:16.730Z,71.98
2024-02-19T09:22:03.834Z,71.84
2024-02-19T09:24:51.446Z,71.09
2024-02-19T09:27:37.403Z,71.99
2024-02-19T09:30:23.720Z,71.14
2024-02-19T09:33:09.362Z,71.86
2024-02-19T09:35:55.226Z,70.46
2024-02-19T09:38:40.775Z,71.11
2024-02-19T09:41:26.387Z,70.25
2024-02-19T09:44:13.424Z,69.82
2024-02-19T09:47:05.403Z,68.75
2024-02-19T09:49:51.421Z,68.97
2024-02-19T09:52:37.327Z,68.80
2024-02-19T09:55:23.205Z,67.84
2024-02-19T09:58:09.756Z,66.99
2024-02-19T10:00:55.886Z,66.76
2024-02-19T10:03:41.447Z,65.94
2024-02-19T10:06:36.907Z,66.44
2024-02-19T10:09:23.353Z,66.19
2024-02-19T10:12:09.224Z,65.72
2024-02-19T10:14:55.105Z,64.77
2024-02-19T10:17:40.953Z,64.33
2024-02-19T10:20:26.345Z,63.82
2024-02-19T10:23:12.004Z,64.18
2024-02-19T10:25:57.464Z,63.37
2024-02-19T10:28:44.171Z,64.20
2024-02-19T10:31:32.683Z,64.22
2024-02-19T10:34:19.589Z,64.16
2024-02-19T10:37:07.358Z,64.44
2024-02-19T10:39:53.189Z,64.57
2024-02-19T10:42:39.658Z,63.76
2024-02-19T10:45:26.928Z,64.10
2024-02-19T10:48:12.756Z,63.36
2024-02-19T10:50:58.389Z,63.01
2024-02-19T10:53:43.900Z,62.77
2024-02-19T10:56:37.661Z,62.82
2024-02-19T10:59:23.134Z,61.81
2024-02-19T11:02:11.021Z,62.32
2024-02-19T11:04:59.473Z,63.15
2024-02-19T11:07:45.473Z,62.00
2024-02-19T11:10:48.938Z,61.69
2024-02-19T11:13:37.465Z,60.63
2024-02-19T11:16:28.812Z,60.54
2024-02-19T11:19:14.701Z,60.78
2024-02-19T11:22:09.603Z,60.08
2024-02-19T11:24:55.245Z,60.26
2024-02-19T11:27:41.288Z,60.36
2024-02-19T11:30:27.624Z,59.87
2024-02-19T11:33:13.684Z,59.60
2024-02-19T11:35:59.089Z,59.22
2024-02-19T11:38:44.436Z,59.18
2024-02-19T11:41:30.211Z,59.48
2024-02-19T11:44:17.917Z,60.07
2024-02-19T11:47:05.016Z,60.25
2024-02-19T11:49:50.465Z,60.02
2024-02-19T11:52:36.306Z,60.67
2024-02-19T11:55:25.067Z,60.58
2024-02-19T11:58:11.310Z,60.00
2024-02-19T12:01:03.415Z,60.05
2024-02-19T12:03:49.143Z,60.00
2024-02-19T12:06:38.462Z,60.39
2024-02-19T12:09:24.092Z,60.54
2024-02-19T12:12:11.196Z,59.64
2024-02-19T12:14:56.880Z,60.10
2024-02-19T12:17:43.156Z,59.87
2024-02-19T12:20:28.638Z,58.49
2024-02-19T12:23:15.665Z,58.46
2024-02-19T12:26:01.621Z,58.64
2024-02-19T12:28:47.377Z,58.88
2024-02-19T12:31:32.823Z,58.29
2024-02-19T12:34:18.247Z,57.17
2024-02-19T12:37:04.619Z,56.55
2024-02-19T12:39:50.166Z,58.08
2024-02-19T12:42:35.916Z,58.08
2024-02-19T12:45:21.584Z,57.85
2024-02-19T12:48:07.677Z,57.53
2024-02-19T12:50:53.464Z,58.36
2024-02-19T12:53:39.135Z,58.19
2024-02-19T12:56:24.714Z,57.80
2024-02-19T12:59:10.442Z,58.06
2024-02-19T13:01:56.230Z,57.89
2024-02-19T13:04:42.017Z,58.43
2024-02-19T13:07:27.720Z,59.14
2024-02-19T13:10:14.451Z,58.90
2024-02-19T13:13:00.196Z,59.53
2024-02-19T13:15:47.924Z,60.52
2024-02-19T13:18:34.064Z,59.75
2024-02-19T13:21:20.999Z,60.40
2024-02-19T13:24:06.994Z,60.70
2024-02-19T13:26:54.719Z,61.43
2024-02-19T13:29:40.533Z,61.00
2024-02-19T13:32:26.277Z,61.78
2024-02-19T13:35:13.239Z,61.65
2024-02-19T13:38:05.013Z,62.82
2024-02-19T13:40:51.200Z,62.62
2024-02-19T13:43:36.817Z,62.30
2024-02-19T13:46:22.304Z,62.40
2024-02-19T13:49:08.230Z,62.34
2024-02-19T13:51:53.684Z,61.50
2024-02-19T13:54:39.135Z,62.00
2024-02-19T13:57:24.495Z,62.47
2024-02-19T14:00:11.907Z,62.66
2024-02-19T14:02:57.345Z,61.85
2024-02-19T14:05:43.108Z,63.04
2024-02-19T14:08:28.814Z,62.14
2024-02-19T14:11:14.472Z,62.24
2024-02-19T14:14:02.702Z,61.53
2024-02-19T14:16:49.476Z,62.91
2024-02-19T14:19:35.549Z,62.29
2024-02-19T14:22:22.840Z,62.18
2024-02-19T14:25:12.774Z,61.99
2024-02-19T14:27:58.882Z,62.35
2024-02-19T14:30:44.762Z,61.55
2024-02-19T14:33:30.461Z,61.96
2024-02-19T14:36:16.176Z,61.85
2024-02-19T14:39:01.689Z,62.51
2024-02-19T14:41:48.494Z,62.37
2024-02-19T14:44:35.860Z,61.70
2024-02-19T14:47:21.611Z,62.02
2024-02-19T14:50:07.951Z,62.02
2024-02-19T14:52:53.414Z,61.76
2024-02-19T14:55:39.031Z,61.69
2024-02-19T14:58:24.435Z,62.53
2024-02-19T15:01:09.868Z,62.06
2024-02-19T15:03:55.416Z,62.34
2024-02-19T15:06:44.215Z,63.29
2024-02-19T15:09:29.572Z,63.03
2024-02-19T15:12:15.370Z,63.55
2024-02-19T15:15:00.929Z,62.31
2024-02-19T15:17:47.015Z,63.10
2024-02-19T15:20:32.712Z,62.33
2024-02-19T15:23:18.153Z,62.10
2024-02-19T15:26:03.949Z,63.62
2024-02-19T15:28:49.341Z,64.02
2024-02-19T15:31:37.918Z,64.18
2024-02-19T15:34:25.492Z,64.53
2024-02-19T15:37:11.595Z,65.04
2024-02-19T15:39:58.217Z,64.79
2024-02-19T15:42:45.158Z,65.69
2024-02-19T15:45:31.240Z,65.45
2024-02-19T15:48:17.275Z,65.63
2024-02-19T15:51:02.932Z,65.51
2024-02-19T15:53:50.321Z,65.93
2024-02-19T15:56:37.099Z,65.77
2024-02-19T15:59:23.011Z,65.40
2024-02-19T16:02:09.157Z,65.62
2024-02-19T16:04:55.049Z,65.83
2024-02-19T16:07:41.024Z,66.06
2024-02-19T16:10:26.387Z,66.06
2024-02-19T16:13:11.989Z,66.18
2024-02-19T16:16:00.766Z,65.43
2024-02-19T16:18:47.084Z,65.89
2024-02-19T16:21:33.363Z,66.13
2024-02-19T16:24:18.790Z,66.41
2024-02-19T16:27:07.075Z,66.62
2024-02-19T16:29:52.787Z,66.49
2024-02-19T16:32:38.157Z,66.95
2024-02-19T16:35:24.439Z,67.06
2024-02-19T16:38:10.208Z,66.94
2024-02-19T16:40:57.529Z,66.77
2024-02-19T16:43:43.154Z,67.47
2024-02-19T16:46:29.979Z,66.97
2024-02-19T16:49:15.474Z,67.65
2024-02-19T16:52:00.830Z,67.82
2024-02-19T16:54:46.296Z,67.61
2024-02-19T16:57:31.762Z,67.84
2024-02-19T17:00:17.403Z,67.91
2024-02-19T17:03:03.743Z,67.61
2024-02-19T17:06:06.345Z,67.74
2024-02-19T17:08:51.763Z,68.39
2024-02-19T17:11:37.341Z,68.71
2024-02-19T17:14:23.163Z,68.85
2024-02-19T17:17:08.698Z,68.58
2024-02-19T17:19:55.431Z,68.73
2024-02-19T17:22:40.817Z,68.43
2024-02-19T17:25:26.841Z,68.75
2024-02-19T17:28:12.635Z,69.08
2024-02-19T17:30:58.422Z,68.88
2024-02-19T17:33:44.089Z,68.85
2024-02-19T17:36:29.796Z,68.46
2024-02-19T17:39:15.587Z,68.74
2024-02-19T17:42:02.469Z,69.02
2024-02-19T17:44:48.274Z,68.96
2024-02-19T17:47:34.029Z,68.63
2024-02-19T17:50:22.570Z,69.35
2024-02-19T17:53:08.235Z,68.91
2024-02-19T17:55:54.829Z,68.96
2024-02-19T17:58:41.517Z,69.58
2024-02-19T18:01:27.479Z,69.56
2024-02-19T18:04:13.655Z,70.06
2024-02-19T18:07:01.760Z,70.20
2024-02-19T18:09:48.094Z,69.94
2024-02-19T18:12:33.756Z,70.60
2024-02-19T18:15:22.780Z,70.51
2024-02-19T18:18:10.234Z,70.78
2024-02-19T18:20:56.261Z,70.38
2024-02-19T18:23:41.829Z,70.21
2024-02-19T18:26:29.185Z,70.48
2024-02-19T18:29:17.177Z,70.49
2024-02-19T18:32:03.641Z,70.35
2024-02-19T18:34:49.421Z,70.50
2024-02-19T18:37:35.015Z,70.20
2024-02-19T18:40:20.326Z,70.49
2024-02-19T18:43:06.067Z,70.80
2024-02-19T18:45:53.113Z,70.71
2024-02-19T18:48:38.989Z,70.38
2024-02-19T18:51:28.336Z,71.15
2024-02-19T18:54:14.847Z,70.90
2024-02-19T18:57:02.357Z,71.16
2024-02-19T18:59:48.098Z,70.67
2024-02-19T19:02:35.405Z,70.73
2024-02-19T19:05:20.954Z,71.24
2024-02-19T19:08:06.555Z,71.69
2024-02-19T19:10:52.161Z,71.95
2024-02-19T19:13:41.511Z,71.93
2024-02-19T19:16:27.787Z,72.34
2024-02-19T19:19:13.839Z,71.80
2024-02-19T19:22:00.379Z,72.10
2024-02-19T19:24:47.908Z,72.30
2024-02-19T19:27:34.368Z,72.89
2024-02-19T19:30:20.166Z,72.08
2024-02-19T19:33:06.291Z,72.35
2024-02-19T19:35:53.234Z,71.98
2024-02-19T19:38:39.057Z,72.03
2024-02-19T19:41:27.305Z,71.66
2024-02-19T19:44:18.144Z,71.33
2024-02-19T19:47:03.789Z,71.61
2024-02-19T19:49:52.876Z,71.98
2024-02-19T19:52:40.010Z,71.34
2024-02-19T19:55:25.960Z,71.92
2024-02-19T19:58:17.360Z,71.92
2024-02-19T20:01:11.012Z,71.94
2024-02-19T20:03:56.517Z,72.01
2024-02-19T20:06:45.057Z,71.92
2024-02-19T20:09:31.177Z,72.20
2024-02-19T20:12:19.005Z,71.97
2024-02-19T20:15:06.475Z,72.30
2024-02-19T20:17:53.558Z,72.05
2024-02-19T20:20:39.986Z,71.95
2024-02-19T20:23:27.067Z,72.21
2024-02-19T20:26:14.612Z,71.94
2024-02-19T20:29:00.241Z,72.65
2024-02-19T20:31:46.692Z,72.13
2024-02-19T20:34:34.796Z,72.55
2024-02-19T20:37:21.178Z,72.49
2024-02-19T20:40:07.752Z,73.07
2024-02-19T20:42:58.867Z,72.41
2024-02-19T20:45:48.034Z,73.36
2024-02-19T20:48:34.683Z,72.92
2024-02-19T20:51:20.487Z,73.37
2024-02-19T20:54:07.473Z,73.13
2024-02-19T20:56:53.279Z,72.78
2024-02-19T20:59:39.548Z,73.12
2024-02-19T21:02:25.382Z,72.91
2024-02-19T21:05:14.980Z,72.57
2024-02-19T21:08:01.491Z,73.09
2024-02-19T21:10:49.247Z,72.53
2024-02-19T21:13:36.716Z,72.11
2024-02-19T21:16:23.336Z,72.52
2024-02-19T21:19:08.804Z,72.49
2024-02-19T21:21:54.475Z,72.08
2024-02-19T21:24:40.341Z,72.31
2024-02-19T21:27:27.000Z,72.40
2024-02-19T21:30:13.110Z,72.43
2024-02-19T21:32:58.850Z,72.00
2024-02-19T21:35:47.675Z,72.16
2024-02-19T21:38:33.745Z,72.70
2024-02-19T21:41:19.384Z,72.44
2024-02-19T21:44:06.542Z,72.15
2024-02-19T21:46:52.376Z,72.75
2024-02-19T21:49:38.053Z,72.76
2024-02-19T21:52:24.258Z,72.56
2024-02-19T21:55:09.928Z,72.68
2024-02-19T21:57:55.488Z,72.39
2024-02-19T22:00:41.397Z,72.72
2024-02-19T22:03:26.953Z,72.51
2024-02-19T22:06:12.710Z,72.72
2024-02-19T22:09:01.937Z,72.86
2024-02-19T22:11:49.289Z,72.81
2024-02-19T22:14:35.030Z,73.07
2024-02-19T22:17:20.758Z,72.50
2024-02-19T22:20:10.988Z,72.68
2024-02-19T22:22:56.575Z,72.69
2024-02-19T22:25:42.656Z,72.83
2024-02-19T22:28:32.494Z,73.25
2024-02-19T22:31:17.961Z,72.84
2024-02-19T22:34:03.740Z,73.04
2024-02-19T22:36:49.303Z,73.12
2024-02-19T22:39:34.979Z,73.31
2024-02-19T22:42:20.456Z,73.34
2024-02-19T22:45:07.442Z,73.02
2024-02-19T22:47:53.138Z,73.10
2024-02-19T22:50:39.280Z,73.08
2024-02-19T22:53:24.670Z,72.97
2024-02-19T22:56:10.261Z,73.40
2024-02-19T22:59:06.506Z,73.29
2024-02-19T23:01:56.878Z,73.79
2024-02-19T23:04:44.057Z,72.94
2024-02-19T23:07:29.524Z,73.69
2024-02-19T23:10:15.012Z,73.51
2024-02-19T23:13:00.918Z,73.26
2024-02-19T23:15:46.486Z,73.52
2024-02-19T23:18:32.555Z,73.34
2024-02-19T23:21:18.181Z,73.43
2024-02-19T23:24:03.983Z,73.69
2024-02-19T23:26:49.630Z,74.06
2024-02-19T23:29:35.166Z,73.48
2024-02-19T23:32:20.913Z,74.18
2024-02-19T23:35:07.693Z,73.73
2024-02-19T23:37:54.469Z,73.87
2024-02-19T23:40:40.877Z,74.27
2024-02-19T23:43:27.323Z,73.47
2024-02-19T23:46:13.113Z,73.90
2024-02-19T23:48:59.151Z,73.73
2024-02-19T23:51:49.260Z,73.83
2024-02-19T23:54:36.036Z,73.95
2024-02-19T23:57:21.791Z,73.51
